createdAt,value
2018-02-11T00:00:12.807Z,98275.53
2018-02-11T00:02:43.951Z,98277.27
2018-02-11T00:05:14.820Z,98278.63
2018-02-11T00:07:46.635Z,98270.60
2018-02-11T00:10:18.500Z,98262.56
2018-02-11T00:12:49.751Z,98258.80
2018-02-11T00:15:21.200Z,98256.33
2018-02-11T00:17:52.876Z,98246.82
2018-02-11T00:20:23.646Z,98236.33
2018-02-11T00:22:54.364Z,98234.55
2018-02-11T00:25:25.813Z,98230.30
2018-02-11T00:27:56.835Z,98226.68
2018-02-11T00:30:28.280Z,98219.92
2018-02-11T00:32:59.988Z,98222.50
2018-02-11T00:35:31.528Z,98217.45
2018-02-11T00:38:06.760Z,98211.53
2018-02-11T00:40:38.415Z,98210.00
2018-02-11T00:43:09.580Z,98217.63
2018-02-11T00:45:40.855Z,98217.87
2018-02-11T00:48:12.142Z,98217.08
2018-02-11T00:50:43.410Z,98224.01
2018-02-11T00:53:14.989Z,98217.12
2018-02-11T00:55:46.035Z,98207.84
2018-02-11T00:58:17.209Z,98206.47
2018-02-11T01:00:48.787Z,98215.30
2018-02-11T01:03:20.399Z,98201.70
2018-02-11T01:05:51.684Z,98199.84
2018-02-11T01:08:23.539Z,98199.05
2018-02-11T01:10:55.028Z,98192.67
2018-02-11T01:13:26.016Z,98185.52
2018-02-11T01:15:58.836Z,98179.05
2018-02-11T01:18:30.120Z,98183.15
2018-02-11T01:21:02.356Z,98181.57
2018-02-11T01:23:33.607Z,98174.27
2018-02-11T01:26:05.006Z,98173.55
2018-02-11T01:28:36.204Z,98171.16
2018-02-11T01:31:07.804Z,98157.58
2018-02-11T01:33:39.181Z,98157.91
2018-02-11T01:36:10.696Z,98156.93
2018-02-11T01:38:42.391Z,98150.61
2018-02-11T01:41:13.372Z,98138.02
2018-02-11T01:43:44.863Z,98132.00
2018-02-11T01:46:16.303Z,98131.33
2018-02-11T01:48:47.682Z,98127.63
2018-02-11T01:51:19.855Z,98127.97
2018-02-11T01:53:51.128Z,98123.91
2018-02-11T01:56:22.532Z,98109.41
2018-02-11T01:58:54.151Z,98104.31
2018-02-11T02:01:25.715Z,98103.81
2018-02-11T02:03:57.285Z,98098.23
2018-02-11T02:06:29.173Z,98089.34
2018-02-11T02:09:02.132Z,98088.81
2018-02-11T02:11:33.816Z,98080.48
2018-02-11T02:14:05.452Z,98087.31
2018-02-11T02:16:36.900Z,98091.80
2018-02-11T02:19:08.644Z,98074.19
2018-02-11T02:21:40.453Z,98070.97
2018-02-11T02:24:11.988Z,98068.28
2018-02-11T02:26:43.368Z,98066.63
2018-02-11T02:29:14.187Z,98064.41
2018-02-11T02:31:45.792Z,98063.62
2018-02-11T02:34:17.139Z,98059.16
2018-02-11T02:36:48.624Z,98059.30
2018-02-11T02:39:20.326Z,98055.34
2018-02-11T02:41:51.625Z,98044.39
2018-02-11T02:44:23.320Z,98045.22
2018-02-11T02:46:54.723Z,98038.42
2018-02-11T02:49:26.133Z,98032.91
2018-02-11T02:51:58.724Z,98036.34
2018-02-11T02:54:30.000Z,98024.96
2018-02-11T02:57:01.644Z,98019.13
2018-02-11T02:59:33.332Z,98021.22
2018-02-11T03:02:04.628Z,98013.08
2018-02-11T03:04:35.823Z,98013.41
2018-02-11T03:07:07.376Z,98006.77
2018-02-11T03:09:38.969Z,97993.95
2018-02-11T03:12:10.357Z,97998.44
2018-02-11T03:14:41.683Z,97993.53
2018-02-11T03:17:12.944Z,97982.77
2018-02-11T03:19:44.842Z,97975.84
2018-02-11T03:22:15.856Z,97978.59
2018-02-11T03:24:47.486Z,97979.48
2018-02-11T03:27:18.855Z,97978.02
2018-02-11T03:29:50.416Z,97961.80
2018-02-11T03:32:21.891Z,97955.30
2018-02-11T03:34:53.184Z,97950.36
2018-02-11T03:37:24.619Z,97945.17
2018-02-11T03:39:57.632Z,97944.27
2018-02-11T03:42:29.196Z,97945.37
2018-02-11T03:45:01.486Z,97940.55
2018-02-11T03:47:32.958Z,97942.28
2018-02-11T03:50:04.310Z,97947.03
2018-02-11T03:52:35.899Z,97934.31
2018-02-11T03:55:07.145Z,97929.76
2018-02-11T03:57:38.640Z,97932.38
2018-02-11T04:00:10.020Z,97927.73
2018-02-11T04:02:41.656Z,97924.76
2018-02-11T04:05:12.744Z,97925.66
2018-02-11T04:07:44.730Z,97928.50
2018-02-11T04:10:16.049Z,97925.62
2018-02-11T04:12:47.516Z,97917.09
2018-02-11T04:15:19.497Z,97912.74
2018-02-11T04:17:51.000Z,97912.11
2018-02-11T04:20:22.528Z,97903.85
2018-02-11T04:22:54.208Z,97896.64
2018-02-11T04:25:25.695Z,97893.39
2018-02-11T04:27:57.513Z,97885.95
2018-02-11T04:30:29.093Z,97875.32
2018-02-11T04:33:01.733Z,97865.47
2018-02-11T04:35:33.852Z,97866.94
2018-02-11T04:38:05.354Z,97855.65
2018-02-11T04:40:36.775Z,97852.08
2018-02-11T04:43:07.863Z,97849.02
2018-02-11T04:45:39.576Z,97841.87
2018-02-11T04:48:10.830Z,97841.87
2018-02-11T04:50:42.040Z,97838.64
2018-02-11T04:53:13.464Z,97833.20
2018-02-11T04:55:45.228Z,97826.83
2018-02-11T04:58:16.516Z,97823.88
2018-02-11T05:00:47.725Z,97817.11
2018-02-11T05:03:19.841Z,97804.03
2018-02-11T05:05:51.340Z,97803.03
2018-02-11T05:08:23.044Z,97795.46
2018-02-11T05:10:54.444Z,97789.84
2018-02-11T05:13:25.820Z,97791.20
2018-02-11T05:15:57.532Z,97783.67
2018-02-11T05:18:29.487Z,97781.16
2018-02-11T05:21:01.750Z,97783.63
2018-02-11T05:23:32.980Z,97776.78
2018-02-11T05:26:04.556Z,97771.59
2018-02-11T05:28:36.444Z,97768.23
2018-02-11T05:31:07.838Z,97762.02
2018-02-11T05:33:39.645Z,97754.01
2018-02-11T05:36:10.821Z,97748.19
2018-02-11T05:38:41.996Z,97752.34
2018-02-11T05:41:13.404Z,97750.81
2018-02-11T05:43:44.960Z,97750.63
2018-02-11T05:46:16.238Z,97748.78
2018-02-11T05:48:48.911Z,97745.16
2018-02-11T05:51:21.184Z,97744.58
2018-02-11T05:53:52.501Z,97727.48
2018-02-11T05:56:23.854Z,97726.09
2018-02-11T05:58:55.268Z,97727.81
2018-02-11T06:01:26.968Z,97715.31
2018-02-11T06:03:58.978Z,97715.79
2018-02-11T06:06:30.820Z,97711.75
2018-02-11T06:09:02.211Z,97710.30
2018-02-11T06:11:36.522Z,97702.55
2018-02-11T06:14:08.955Z,97696.36
2018-02-11T06:16:41.114Z,97683.86
2018-02-11T06:19:13.146Z,97681.30
2018-02-11T06:21:44.884Z,97680.88
2018-02-11T06:24:18.385Z,97678.14
2018-02-11T06:26:54.433Z,97676.70
2018-02-11T06:29:25.899Z,97660.61
2018-02-11T06:31:57.296Z,97654.30
2018-02-11T06:34:29.300Z,97657.88
2018-02-11T06:37:01.169Z,97646.84
2018-02-11T06:39:32.756Z,97637.09
2018-02-11T06:42:05.430Z,97635.83
2018-02-11T06:44:37.982Z,97636.20
2018-02-11T06:47:17.352Z,97627.86
2018-02-11T06:49:50.357Z,97622.25
2018-02-11T06:52:25.529Z,97620.16
2018-02-11T06:54:58.749Z,97619.73
2018-02-11T06:57:30.626Z,97621.16
2018-02-11T07:00:03.418Z,97616.52
2018-02-11T07:02:37.835Z,97606.28
2018-02-11T07:05:14.903Z,97616.03
2018-02-11T07:07:46.287Z,97609.23
2018-02-11T07:10:18.583Z,97610.91
2018-02-11T07:12:50.152Z,97603.65
2018-02-11T07:15:22.261Z,97604.90
2018-02-11T07:17:53.680Z,97608.58
2018-02-11T07:20:28.001Z,97598.91
2018-02-11T07:23:01.918Z,97596.34
2018-02-11T07:25:33.040Z,97596.68
2018-02-11T07:28:04.743Z,97589.91
2018-02-11T07:30:35.804Z,97587.64
2018-02-11T07:33:07.260Z,97580.13
2018-02-11T07:35:39.052Z,97574.05
2018-02-11T07:38:11.906Z,97573.69
2018-02-11T07:40:43.529Z,97568.37
2018-02-11T07:43:14.325Z,97562.56
2018-02-11T07:45:45.744Z,97547.48
2018-02-11T07:48:17.054Z,97552.52
2018-02-11T07:50:51.420Z,97537.91
2018-02-11T07:55:58.584Z,97528.22
2018-02-11T07:58:29.889Z,97523.70
2018-02-11T08:01:07.425Z,97519.47
2018-02-11T08:03:39.359Z,97514.38
2018-02-11T08:06:10.117Z,97516.55
2018-02-11T08:08:45.764Z,97514.86
2018-02-11T08:11:17.197Z,97507.73
2018-02-11T08:13:48.332Z,97502.77
2018-02-11T08:16:19.823Z,97502.45
2018-02-11T08:18:51.302Z,97489.19
2018-02-11T08:21:23.103Z,97496.52
2018-02-11T08:23:58.739Z,97484.56
2018-02-11T08:26:31.508Z,97484.02
2018-02-11T08:29:02.875Z,97476.70
2018-02-11T08:31:34.500Z,97490.06
2018-02-11T08:34:05.852Z,97476.47
2018-02-11T08:36:37.784Z,97479.28
2018-02-11T08:39:09.212Z,97470.67
2018-02-11T08:41:40.072Z,97471.11
2018-02-11T08:44:11.549Z,97455.77
2018-02-11T08:46:43.212Z,97463.45
2018-02-11T08:49:14.314Z,97451.76
2018-02-11T08:54:21.605Z,97446.45
2018-02-11T08:56:53.593Z,97452.66
2018-02-11T08:59:24.905Z,97444.20
2018-02-11T09:01:56.288Z,97437.61
2018-02-11T09:04:28.044Z,97439.03
2018-02-11T09:07:00.574Z,97427.69
2018-02-11T09:09:31.828Z,97425.00
2018-02-11T09:12:03.701Z,97421.42
2018-02-11T09:14:35.061Z,97425.23
2018-02-11T09:17:06.221Z,97427.67
2018-02-11T09:19:37.520Z,97431.61
2018-02-11T09:22:08.413Z,97427.80
2018-02-11T09:24:39.248Z,97434.17
2018-02-11T09:27:10.173Z,97427.19
2018-02-11T09:29:41.236Z,97431.13
2018-02-11T09:32:12.008Z,97407.29
2018-02-11T09:34:42.855Z,97392.09
2018-02-11T09:37:13.873Z,97393.62
2018-02-11T09:39:45.357Z,97388.48
2018-02-11T09:42:17.065Z,97379.70
2018-02-11T09:44:47.971Z,97383.72
2018-02-11T09:47:18.850Z,97379.08
2018-02-11T09:49:50.842Z,97381.13
2018-02-11T09:52:22.054Z,97398.63
2018-02-11T09:54:53.544Z,97392.06
2018-02-11T09:57:24.462Z,97388.28
2018-02-11T09:59:55.728Z,97389.89
2018-02-11T10:02:26.546Z,97389.92
2018-02-11T10:04:59.582Z,97388.06
2018-02-11T10:07:30.414Z,97384.73
2018-02-11T10:10:02.936Z,97383.48
2018-02-11T10:12:34.678Z,97371.13
2018-02-11T10:15:06.249Z,97371.46
2018-02-11T10:17:38.138Z,97381.23
2018-02-11T10:20:09.355Z,97380.81
2018-02-11T10:22:41.061Z,97386.63
2018-02-11T10:25:12.294Z,97384.25
2018-02-11T10:27:43.192Z,97370.64
2018-02-11T10:30:14.586Z,97374.13
2018-02-11T10:32:45.745Z,97370.57
2018-02-11T10:35:16.615Z,97361.86
2018-02-11T10:37:47.778Z,97372.03
2018-02-11T10:40:18.589Z,97365.38
2018-02-11T10:42:49.390Z,97368.51
2018-02-11T10:45:20.671Z,97368.07
2018-02-11T10:47:51.707Z,97367.78
2018-02-11T10:50:22.662Z,97347.61
2018-02-11T10:52:54.035Z,97349.42
2018-02-11T10:55:24.895Z,97344.77
2018-02-11T10:58:00.315Z,97335.72
2018-02-11T11:00:35.144Z,97331.70
2018-02-11T11:03:14.459Z,97326.47
2018-02-11T11:05:45.980Z,97315.52
2018-02-11T11:08:16.896Z,97311.34
2018-02-11T11:10:47.779Z,97301.95
2018-02-11T11:13:19.050Z,97306.27
2018-02-11T11:15:49.865Z,97304.53
2018-02-11T11:18:20.827Z,97308.56
2018-02-11T11:20:51.663Z,97305.11
2018-02-11T11:23:22.519Z,97300.08
2018-02-11T11:25:53.674Z,97307.45
2018-02-11T11:28:24.558Z,97312.54
2018-02-11T11:30:55.425Z,97312.17
2018-02-11T11:33:26.521Z,97312.41
2018-02-11T11:35:57.426Z,97316.69
2018-02-11T11:38:28.258Z,97314.73
2018-02-11T11:40:59.414Z,97307.85
2018-02-11T11:43:31.063Z,97329.66
2018-02-11T11:46:01.939Z,97323.17
2018-02-11T11:48:33.166Z,97318.95
2018-02-11T11:51:04.107Z,97317.06
2018-02-11T11:53:35.268Z,97327.17
2018-02-11T11:56:06.190Z,97333.52
2018-02-11T11:58:37.028Z,97331.02
2018-02-11T12:01:08.305Z,97322.69
2018-02-11T12:03:39.102Z,97318.84
2018-02-11T12:06:09.906Z,97306.50
2018-02-11T12:08:41.047Z,97311.17
2018-02-11T12:11:11.904Z,97303.13
2018-02-11T12:13:43.433Z,97295.40
2018-02-11T12:16:14.655Z,97303.52
2018-02-11T12:18:45.562Z,97316.71
2018-02-11T12:21:16.678Z,97317.74
2018-02-11T12:23:47.542Z,97312.27
2018-02-11T12:26:19.017Z,97312.92
2018-02-11T12:28:49.826Z,97312.95
2018-02-11T12:31:20.678Z,97311.82
2018-02-11T12:33:51.579Z,97316.56
2018-02-11T12:36:22.442Z,97312.99
2018-02-11T12:38:53.313Z,97296.83
2018-02-11T12:41:24.532Z,97297.13
2018-02-11T12:43:55.503Z,97298.07
2018-02-11T12:46:26.343Z,97297.53
2018-02-11T12:48:57.494Z,97289.70
2018-02-11T12:51:28.335Z,97275.53
2018-02-11T12:53:59.730Z,97282.80
2018-02-11T12:56:30.871Z,97283.69
2018-02-11T12:59:01.779Z,97297.53
2018-02-11T13:01:32.719Z,97290.20
2018-02-11T13:04:03.955Z,97309.19
2018-02-11T13:06:34.842Z,97292.66
2018-02-11T13:09:05.822Z,97292.61
2018-02-11T13:11:37.282Z,97286.00
2018-02-11T13:14:08.189Z,97275.85
2018-02-11T13:16:39.075Z,97301.80
2018-02-11T13:19:10.234Z,97301.22
2018-02-11T13:21:41.138Z,97307.09
2018-02-11T13:24:12.086Z,97309.28
2018-02-11T13:26:43.390Z,97316.91
2018-02-11T13:29:15.066Z,97320.22
2018-02-11T13:31:46.735Z,97335.47
2018-02-11T13:34:17.916Z,97334.64
2018-02-11T13:36:49.318Z,97344.52
2018-02-11T13:39:20.179Z,97351.73
2018-02-11T13:41:51.366Z,97349.37
2018-02-11T13:44:22.215Z,97341.63
2018-02-11T13:46:53.404Z,97340.30
2018-02-11T13:49:24.563Z,97344.12
2018-02-11T13:51:55.501Z,97328.90
2018-02-11T13:54:27.082Z,97317.75
2018-02-11T13:56:58.338Z,97327.44
2018-02-11T13:59:29.918Z,97327.64
2018-02-11T14:02:02.218Z,97325.23
2018-02-11T14:04:33.131Z,97321.89
2018-02-11T14:07:04.402Z,97325.59
2018-02-11T14:09:35.597Z,97323.22
2018-02-11T14:12:07.038Z,97321.97
2018-02-11T14:14:38.195Z,97327.50
2018-02-11T14:17:09.158Z,97323.81
2018-02-11T14:19:41.478Z,97322.64
2018-02-11T14:22:12.422Z,97322.75
2018-02-11T14:24:43.354Z,97326.55
2018-02-11T14:27:14.212Z,97322.95
2018-02-11T14:29:46.148Z,97325.20
2018-02-11T14:32:17.001Z,97335.02
2018-02-11T14:34:47.974Z,97333.08
2018-02-11T14:37:19.403Z,97337.88
2018-02-11T14:39:50.339Z,97339.56
2018-02-11T14:42:22.009Z,97348.46
2018-02-11T14:44:53.089Z,97343.76
2018-02-11T14:47:24.228Z,97342.51
2018-02-11T14:49:55.326Z,97352.71
2018-02-11T14:52:26.267Z,97344.83
2018-02-11T14:55:00.444Z,97346.80
2018-02-11T14:57:32.030Z,97339.55
2018-02-11T15:00:05.275Z,97334.82
2018-02-11T15:02:38.022Z,97335.33
2018-02-11T15:05:09.637Z,97331.90
2018-02-11T15:07:41.297Z,97328.70
2018-02-11T15:10:12.487Z,97335.14
2018-02-11T15:12:43.290Z,97344.95
2018-02-11T15:15:14.423Z,97340.59
2018-02-11T15:17:45.940Z,97340.58
2018-02-11T15:20:16.865Z,97340.33
2018-02-11T15:22:48.021Z,97352.91
2018-02-11T15:25:18.885Z,97343.21
2018-02-11T15:27:50.119Z,97338.10
2018-02-11T15:30:21.395Z,97341.52
2018-02-11T15:32:52.261Z,97339.41
2018-02-11T15:35:23.318Z,97341.93
2018-02-11T15:37:54.603Z,97341.61
2018-02-11T15:40:25.594Z,97335.20
2018-02-11T15:42:56.772Z,97334.05
2018-02-11T15:45:27.705Z,97336.73
2018-02-11T15:47:58.796Z,97341.16
2018-02-11T15:50:30.323Z,97344.98
2018-02-11T15:53:01.363Z,97342.34
2018-02-11T15:55:32.358Z,97335.50
2018-02-11T15:58:03.442Z,97338.61
2018-02-11T16:00:34.665Z,97336.34
2018-02-11T16:03:06.456Z,97347.75
2018-02-11T16:05:37.564Z,97346.36
2018-02-11T16:08:08.436Z,97350.38
2018-02-11T16:10:39.672Z,97350.31
2018-02-11T16:13:11.186Z,97354.44
2018-02-11T16:15:42.446Z,97345.39
2018-02-11T16:18:15.533Z,97344.55
2018-02-11T16:20:46.443Z,97341.24
2018-02-11T16:23:17.811Z,97337.84
2018-02-11T16:25:49.894Z,97338.97
2018-02-11T16:28:20.766Z,97337.16
2018-02-11T16:30:51.982Z,97336.12
2018-02-11T16:33:22.858Z,97338.48
2018-02-11T16:35:54.482Z,97341.86
2018-02-11T16:38:25.762Z,97341.24
2018-02-11T16:40:56.692Z,97343.05
2018-02-11T16:43:28.297Z,97344.02
2018-02-11T16:45:59.778Z,97344.91
2018-02-11T16:48:30.682Z,97343.12
2018-02-11T16:51:02.474Z,97346.36
2018-02-11T16:53:34.626Z,97346.55
2018-02-11T16:56:05.558Z,97348.97
2018-02-11T16:58:36.478Z,97342.22
2018-02-11T17:01:08.454Z,97344.64
2018-02-11T17:03:39.318Z,97349.79
2018-02-11T17:06:10.190Z,97354.66
2018-02-11T17:08:41.425Z,97365.50
2018-02-11T17:11:12.557Z,97358.66
2018-02-11T17:13:43.823Z,97366.08
2018-02-11T17:16:15.099Z,97372.92
2018-02-11T17:18:45.995Z,97376.79
2018-02-11T17:21:18.368Z,97370.86
2018-02-11T17:23:49.361Z,97374.48
2018-02-11T17:26:21.269Z,97373.62
2018-02-11T17:28:52.563Z,97383.15
2018-02-11T17:31:23.490Z,97382.23
2018-02-11T17:33:54.369Z,97380.95
2018-02-11T17:36:25.290Z,97386.53
2018-02-11T17:38:57.591Z,97384.05
2018-02-11T17:41:30.263Z,97390.69
2018-02-11T17:44:03.353Z,97391.38
2018-02-11T17:46:34.330Z,97390.61
2018-02-11T17:49:06.097Z,97401.62
2018-02-11T17:51:36.989Z,97408.03
2018-02-11T17:54:08.175Z,97402.73
2018-02-11T17:56:40.928Z,97412.41
2018-02-11T17:59:11.886Z,97414.75
2018-02-11T18:01:42.866Z,97412.64
2018-02-11T18:04:14.098Z,97418.69
2018-02-11T18:06:44.926Z,97430.20
2018-02-11T18:09:15.898Z,97425.42
2018-02-11T18:11:47.106Z,97434.34
2018-02-11T18:14:18.126Z,97438.83
2018-02-11T18:16:49.300Z,97436.56
2018-02-11T18:19:20.432Z,97443.14
2018-02-11T18:21:52.284Z,97441.41
2018-02-11T18:24:23.598Z,97444.27
2018-02-11T18:26:54.520Z,97446.53
2018-02-11T18:29:25.374Z,97447.45
2018-02-11T18:31:56.294Z,97451.26
2018-02-11T18:34:27.760Z,97456.03
2018-02-11T18:37:00.304Z,97462.92
2018-02-11T18:39:31.760Z,97459.78
2018-02-11T18:42:03.774Z,97460.30
2018-02-11T18:44:34.896Z,97467.09
2018-02-11T18:47:05.752Z,97466.31
2018-02-11T18:49:36.943Z,97462.66
2018-02-11T18:52:08.067Z,97464.27
2018-02-11T18:54:38.849Z,97470.91
2018-02-11T18:57:10.295Z,97468.88
2018-02-11T18:59:41.332Z,97465.42
2018-02-11T19:02:12.192Z,97464.23
2018-02-11T19:04:43.048Z,97465.36
2018-02-11T19:07:14.620Z,97468.76
2018-02-11T19:09:45.500Z,97465.25
2018-02-11T19:12:16.641Z,97462.32
2018-02-11T19:14:48.445Z,97470.25
2018-02-11T19:17:19.345Z,97476.22
2018-02-11T19:19:50.266Z,97475.44
2018-02-11T19:22:21.122Z,97483.17
2018-02-11T19:24:51.953Z,97480.36
2018-02-11T19:27:23.111Z,97480.59
2018-02-11T19:29:54.028Z,97481.06
2018-02-11T19:32:24.901Z,97486.91
2018-02-11T19:34:56.104Z,97482.21
2018-02-11T19:37:27.344Z,97487.45
2018-02-11T19:39:58.176Z,97487.19
2018-02-11T19:42:29.285Z,97498.09
2018-02-11T19:45:00.080Z,97491.28
2018-02-11T19:47:30.940Z,97488.83
2018-02-11T19:50:02.087Z,97490.45
2018-02-11T19:52:33.456Z,97496.59
2018-02-11T19:55:04.322Z,97490.57
2018-02-11T19:57:35.422Z,97496.95
2018-02-11T20:00:06.907Z,97494.97
2018-02-11T20:02:37.736Z,97490.04
2018-02-11T20:05:09.447Z,97502.03
2018-02-11T20:07:40.749Z,97500.22
2018-02-11T20:10:12.084Z,97503.68
2018-02-11T20:12:43.792Z,97509.54
2018-02-11T20:15:14.832Z,97504.98
2018-02-11T20:17:45.740Z,97511.49
2018-02-11T20:20:16.781Z,97516.57
2018-02-11T20:22:47.846Z,97518.12
2018-02-11T20:25:18.629Z,97522.89
2018-02-11T20:27:49.441Z,97520.83
2018-02-11T20:30:20.396Z,97523.62
2018-02-11T20:32:51.224Z,97530.91
2018-02-11T20:35:22.097Z,97533.41
2018-02-11T20:37:53.185Z,97538.08
2018-02-11T20:40:24.630Z,97537.10
2018-02-11T20:42:55.708Z,97537.54
2018-02-11T20:45:26.554Z,97538.83
2018-02-11T20:47:57.376Z,97536.16
2018-02-11T20:50:28.272Z,97548.97
2018-02-11T20:52:59.985Z,97548.84
2018-02-11T20:55:30.830Z,97553.38
2018-02-11T20:58:01.912Z,97548.89
2018-02-11T21:00:32.775Z,97552.56
2018-02-11T21:03:03.628Z,97552.25
2018-02-11T21:05:34.680Z,97555.37
2018-02-11T21:08:05.492Z,97558.56
2018-02-11T21:10:36.328Z,97560.84
2018-02-11T21:13:07.594Z,97567.56
2018-02-11T21:15:38.412Z,97570.08
2018-02-11T21:18:09.447Z,97573.58
2018-02-11T21:20:41.198Z,97574.64
2018-02-11T21:23:13.685Z,97574.83
2018-02-11T21:25:44.740Z,97581.19
2018-02-11T21:28:15.593Z,97578.08
2018-02-11T21:30:46.432Z,97588.23
2018-02-11T21:33:18.189Z,97586.80
2018-02-11T21:35:49.037Z,97593.70
2018-02-11T21:38:19.898Z,97593.24
2018-02-11T21:40:50.696Z,97586.93
2018-02-11T21:43:21.846Z,97596.50
2018-02-11T21:45:52.589Z,97594.63
2018-02-11T21:48:23.376Z,97601.66
2018-02-11T21:50:55.056Z,97607.35
2018-02-11T21:53:25.909Z,97610.27
2018-02-11T21:55:56.725Z,97618.03
2018-02-11T21:58:27.773Z,97619.38
2018-02-11T22:00:58.617Z,97621.84
2018-02-11T22:03:29.423Z,97627.52
2018-02-11T22:06:00.561Z,97625.16
2018-02-11T22:08:33.060Z,97623.30
2018-02-11T22:11:04.790Z,97628.86
2018-02-11T22:13:37.124Z,97631.88
2018-02-11T22:16:08.684Z,97629.70
2018-02-11T22:18:40.228Z,97632.22
2018-02-11T22:21:10.992Z,97633.07
2018-02-11T22:23:41.804Z,97642.05
2018-02-11T22:26:13.344Z,97646.95
2018-02-11T22:28:44.519Z,97653.85
2018-02-11T22:31:15.704Z,97652.23
2018-02-11T22:33:46.544Z,97653.02
2018-02-11T22:36:17.836Z,97651.63
2018-02-11T22:38:48.668Z,97652.59
2018-02-11T22:41:19.468Z,97655.96
2018-02-11T22:43:50.568Z,97661.82
2018-02-11T22:46:21.368Z,97657.94
2018-02-11T22:48:52.259Z,97659.56
2018-02-11T22:51:23.317Z,97657.03
2018-02-11T22:53:54.166Z,97655.69
2018-02-11T22:56:25.700Z,97659.27
2018-02-11T22:58:57.346Z,97660.91
2018-02-11T23:01:29.044Z,97661.13
2018-02-11T23:04:00.757Z,97662.84
2018-02-11T23:06:33.257Z,97657.11
2018-02-11T23:09:05.275Z,97649.86
2018-02-11T23:11:37.731Z,97650.34
2018-02-11T23:14:08.874Z,97655.55
2018-02-11T23:16:40.667Z,97656.33
2018-02-11T23:19:12.119Z,97657.09
2018-02-11T23:21:42.922Z,97660.60
2018-02-11T23:24:14.507Z,97661.80
2018-02-11T23:26:45.924Z,97660.12
2018-02-11T23:29:16.996Z,97654.47
2018-02-11T23:31:47.987Z,97663.05
2018-02-11T23:34:18.851Z,97667.66
2018-02-11T23:36:50.000Z,97672.81
2018-02-11T23:39:20.925Z,97675.50
2018-02-11T23:41:51.665Z,97683.62
2018-02-11T23:44:22.725Z,97691.33
2018-02-11T23:46:53.500Z,97690.91
2018-02-11T23:49:24.336Z,97696.21
2018-02-11T23:51:55.348Z,97695.59
2018-02-11T23:54:26.124Z,97693.22
2018-02-11T23:56:57.464Z,97704.86
2018-02-11T23:59:28.587Z,97698.28
